Time,TemperatureF,DewpointF,PressureIn,WindDirection,WindDirectionDegrees,WindSpeedMPH,WindSpeedGustMPH,Humidity,HourlyPrecipIn,Conditions,Clouds,dailyrainin,SoftwareType,DateUTC
2013-01-21 00:05:00,33.4,32.4,29.85,NNE,22,0.0,-999.0,96,-99.99,,,0.00,Acu-Link.com,2013-01-21 05:05:00,
2013-01-21 00:20:00,32.9,32.1,29.85,NNE,22,0.0,-999.0,97,-99.99,,,0.00,Acu-Link.com,2013-01-21 05:20:00,
2013-01-21 00:35:00,32.5,32.0,29.85,NNE,22,0.0,-999.0,98,-99.99,,,0.00,Acu-Link.com,2013-01-21 05:35:00,
2013-01-21 00:51:00,32.4,31.9,29.85,NNE,22,0.0,-999.0,98,-99.99,,,0.00,Acu-Link.com,2013-01-21 05:51:00,
2013-01-21 01:06:00,31.8,31.3,29.84,NNE,22,0.0,-999.0,98,-99.99,,,0.00,Acu-Link.com,2013-01-21 06:06:00,
2013-01-21 01:36:00,31.1,30.6,29.84,ENE,67,0.0,-999.0,98,-99.99,,,0.00,Acu-Link.com,2013-01-21 06:36:00,
2013-01-21 01:52:00,31.3,31.0,29.84,ENE,67,0.0,-999.0,99,-99.99,,,0.00,Acu-Link.com,2013-01-21 06:52:00,
2013-01-21 02:07:00,30.9,30.4,29.84,ENE,67,0.0,-999.0,98,-99.99,,,0.00,Acu-Link.com,2013-01-21 07:07:00,
2013-01-21 02:22:00,30.2,29.7,29.85,ENE,67,0.0,-999.0,98,-99.99,,,0.00,Acu-Link.com,2013-01-21 07:22:00,
2013-01-21 02:38:00,30.4,29.6,29.85,ENE,67,0.0,-999.0,97,-99.99,,,0.00,Acu-Link.com,2013-01-21 07:38:00,
2013-01-21 02:53:00,29.7,29.4,29.84,ENE,67,0.0,-999.0,99,-99.99,,,0.00,Acu-Link.com,2013-01-21 07:53:00,
2013-01-21 03:08:00,29.3,29.1,29.84,ENE,67,0.0,-999.0,99,-99.99,,,0.00,Acu-Link.com,2013-01-21 08:08:00,
2013-01-21 03:23:00,29.5,29.2,29.84,ENE,67,0.0,-999.0,99,-99.99,,,0.00,Acu-Link.com,2013-01-21 08:23:00,
2013-01-21 03:39:00,29.5,29.2,29.84,ENE,67,0.0,-999.0,99,-99.99,,,0.00,Acu-Link.com,2013-01-21 08:39:00,
2013-01-21 03:54:00,28.8,28.5,29.83,ENE,67,0.0,-999.0,99,-99.99,,,0.00,Acu-Link.com,2013-01-21 08:54:00,
2013-01-21 04:16:00,28.9,28.7,29.83,ENE,67,0.0,-999.0,99,-99.99,,,0.00,Acu-Link.com,2013-01-21 09:16:00,
2013-01-21 04:32:00,28.4,28.2,29.83,ENE,67,0.0,-999.0,99,-99.99,,,0.00,Acu-Link.com,2013-01-21 09:32:00,
2013-01-21 04:47:00,28.2,28.0,29.83,ENE,67,0.0,-999.0,99,-99.99,,,0.00,Acu-Link.com,2013-01-21 09:47:00,
2013-01-21 05:02:00,28.8,28.5,29.83,ENE,67,0.0,-999.0,99,-99.99,,,0.00,Acu-Link.com,2013-01-21 10:02:00,
2013-01-21 05:17:00,28.6,28.3,29.83,ENE,67,0.0,-999.0,99,-99.99,,,0.00,Acu-Link.com,2013-01-21 10:17:00,
2013-01-21 05:32:00,28.4,28.2,29.83,ENE,67,0.0,-999.0,99,-99.99,,,0.00,Acu-Link.com,2013-01-21 10:32:00,
2013-01-21 05:48:00,27.9,27.6,29.83,ENE,67,0.0,-999.0,99,-99.99,,,0.00,Acu-Link.com,2013-01-21 10:48:00,
2013-01-21 06:03:00,28.0,27.8,29.84,ENE,67,0.0,-999.0,99,-99.99,,,0.00,Acu-Link.com,2013-01-21 11:03:00,
2013-01-21 06:18:00,27.5,27.3,29.84,ENE,67,0.0,-999.0,99,-99.99,,,0.00,Acu-Link.com,2013-01-21 11:18:00,
2013-01-21 06:34:00,27.9,27.6,29.84,ENE,67,0.0,-999.0,99,-99.99,,,0.00,Acu-Link.com,2013-01-21 11:34:00,
2013-01-21 06:49:00,27.3,27.1,29.83,ENE,67,0.0,-999.0,99,-99.99,,,0.00,Acu-Link.com,2013-01-21 11:49:00,
2013-01-21 07:04:00,27.5,27.3,29.84,ENE,67,0.0,-999.0,99,-99.99,,,0.00,Acu-Link.com,2013-01-21 12:04:00,
2013-01-21 07:20:00,27.0,26.7,29.84,ENE,67,0.0,-999.0,99,-99.99,,,0.00,Acu-Link.com,2013-01-21 12:20:00,
2013-01-21 07:36:00,27.7,27.4,29.83,ENE,67,0.0,-999.0,99,-99.99,,,0.00,Acu-Link.com,2013-01-21 12:36:00,
2013-01-21 07:51:00,27.1,26.9,29.84,ENE,67,0.0,-999.0,99,-99.99,,,0.00,Acu-Link.com,2013-01-21 12:51:00,
2013-01-21 08:06:00,28.0,27.8,29.84,NE,45,0.0,-999.0,99,-99.99,,,0.00,Acu-Link.com,2013-01-21 13:06:00,
2013-01-21 08:21:00,29.3,29.1,29.84,NE,45,0.0,-999.0,99,-99.99,,,0.00,Acu-Link.com,2013-01-21 13:21:00,
2013-01-21 08:37:00,30.2,30.0,29.84,ENE,67,0.0,-999.0,99,-99.99,,,0.00,Acu-Link.com,2013-01-21 13:37:00,
2013-01-21 08:52:00,30.9,30.7,29.84,ENE,67,0.0,-999.0,99,-99.99,,,0.00,Acu-Link.com,2013-01-21 13:52:00,
2013-01-21 09:07:00,32.5,32.3,29.85,ENE,67,0.0,-999.0,99,-99.99,,,0.00,Acu-Link.com,2013-01-21 14:07:00,
2013-01-21 09:23:00,34.3,34.1,29.85,NE,45,0.0,-999.0,99,-99.99,,,0.00,Acu-Link.com,2013-01-21 14:23:00,
2013-01-21 09:38:00,37.8,35.4,29.85,NNW,337,1.6,-999.0,91,-99.99,,,0.00,Acu-Link.com,2013-01-21 14:38:00,
2013-01-21 09:53:00,41.0,36.5,29.85,ESE,112,2.2,-999.0,84,-99.99,,,0.00,Acu-Link.com,2013-01-21 14:53:00,
2013-01-21 10:08:00,45.9,33.2,29.84,SSE,157,2.2,-999.0,61,-99.99,,,0.00,Acu-Link.com,2013-01-21 15:08:00,
2013-01-21 10:24:00,46.4,32.0,29.83,ESE,112,2.7,-999.0,57,-99.99,,,0.00,Acu-Link.com,2013-01-21 15:24:00,
2013-01-21 10:39:00,49.8,29.9,29.82,SSW,202,4.3,-999.0,46,-99.99,,,0.00,Acu-Link.com,2013-01-21 15:39:00,
2013-01-21 10:54:00,51.4,29.1,29.82,ESE,112,2.2,-999.0,42,-99.99,,,0.00,Acu-Link.com,2013-01-21 15:54:00,
2013-01-21 11:09:00,53.4,29.1,29.82,SSW,202,3.1,-999.0,39,-99.99,,,0.00,Acu-Link.com,2013-01-21 16:09:00,
2013-01-21 11:24:00,53.6,26.6,29.81,NNW,337,1.6,-999.0,35,-99.99,,,0.00,Acu-Link.com,2013-01-21 16:24:00,
2013-01-21 11:40:00,55.9,28.7,29.80,South,180,3.8,-999.0,35,-99.99,,,0.00,Acu-Link.com,2013-01-21 16:40:00,
2013-01-21 11:55:00,56.3,28.3,29.78,SSW,202,2.2,-999.0,34,-99.99,,,0.00,Acu-Link.com,2013-01-21 16:55:00,
2013-01-21 12:10:00,56.8,27.3,29.77,SSW,202,2.7,-999.0,32,-99.99,,,0.00,Acu-Link.com,2013-01-21 17:10:00,
2013-01-21 12:25:00,57.2,26.8,29.76,South,180,4.3,-999.0,31,-99.99,,,0.00,Acu-Link.com,2013-01-21 17:25:00,
2013-01-21 12:40:00,57.4,26.2,29.74,SSW,202,2.2,-999.0,30,-99.99,,,0.00,Acu-Link.com,2013-01-21 17:40:00,
2013-01-21 12:55:00,57.6,25.6,29.73,SSE,157,4.7,-999.0,29,-99.99,,,0.00,Acu-Link.com,2013-01-21 17:55:00,
2013-01-21 13:10:00,59.2,26.1,29.72,West,270,1.6,-999.0,28,-99.99,,,0.00,Acu-Link.com,2013-01-21 18:10:00,
2013-01-21 13:26:00,58.6,24.8,29.72,WSW,247,1.6,-999.0,27,-99.99,,,0.00,Acu-Link.com,2013-01-21 18:26:00,
2013-01-21 13:41:00,58.6,26.5,29.70,SSW,202,1.6,-999.0,29,-99.99,,,0.00,Acu-Link.com,2013-01-21 18:41:00,
2013-01-21 13:56:00,59.2,26.1,29.70,SSW,202,2.7,-999.0,28,-99.99,,,0.00,Acu-Link.com,2013-01-21 18:56:00,
2013-01-21 14:11:00,59.0,28.4,29.69,SW,225,3.8,-999.0,31,-99.99,,,0.00,Acu-Link.com,2013-01-21 19:11:00,
2013-01-21 14:26:00,59.2,28.6,29.68,SSW,202,3.1,-999.0,31,-99.99,,,0.00,Acu-Link.com,2013-01-21 19:26:00,
2013-01-21 14:42:00,59.0,27.6,29.67,SSE,157,3.1,-999.0,30,-99.99,,,0.00,Acu-Link.com,2013-01-21 19:42:00,
2013-01-21 14:57:00,59.4,28.7,29.67,SSW,202,2.2,-999.0,31,-99.99,,,0.00,Acu-Link.com,2013-01-21 19:57:00,
2013-01-21 15:12:00,58.8,29.8,29.66,SW,225,3.8,-999.0,33,-99.99,,,0.00,Acu-Link.com,2013-01-21 20:12:00,
2013-01-21 15:27:00,58.3,29.3,29.66,SW,225,3.1,-999.0,33,-99.99,,,0.00,Acu-Link.com,2013-01-21 20:27:00,
2013-01-21 15:43:00,58.1,29.9,29.66,SSW,202,2.2,-999.0,34,-99.99,,,0.00,Acu-Link.com,2013-01-21 20:43:00,
2013-01-21 15:58:00,57.7,29.6,29.65,WSW,247,2.2,-999.0,34,-99.99,,,0.00,Acu-Link.com,2013-01-21 20:58:00,
2013-01-21 16:13:00,57.7,29.6,29.65,West,270,3.1,-999.0,34,-99.99,,,0.00,Acu-Link.com,2013-01-21 21:13:00,
2013-01-21 16:29:00,57.4,30.0,29.64,SW,225,1.6,-999.0,35,-99.99,,,0.00,Acu-Link.com,2013-01-21 21:29:00,
2013-01-21 16:44:00,56.7,30.7,29.64,SSE,157,2.7,-999.0,37,-99.99,,,0.00,Acu-Link.com,2013-01-21 21:44:00,
2013-01-21 16:59:00,56.3,30.4,29.64,SSW,202,1.6,-999.0,37,-99.99,,,0.00,Acu-Link.com,2013-01-21 21:59:00,
2013-01-21 17:14:00,55.2,30.7,29.63,SSW,202,1.6,-999.0,39,-99.99,,,0.00,Acu-Link.com,2013-01-21 22:14:00,
2013-01-21 17:30:00,54.0,31.4,29.63,SSE,157,0.0,-999.0,42,-99.99,,,0.00,Acu-Link.com,2013-01-21 22:30:00,
2013-01-21 17:45:00,52.9,31.0,29.63,SSW,202,0.0,-999.0,43,-99.99,,,0.00,Acu-Link.com,2013-01-21 22:45:00,
2013-01-21 18:00:00,52.5,31.2,29.63,SSW,202,0.0,-999.0,44,-99.99,,,0.00,Acu-Link.com,2013-01-21 23:00:00,
2013-01-21 18:15:00,51.3,33.3,29.64,ENE,67,0.0,-999.0,50,-99.99,,,0.00,Acu-Link.com,2013-01-21 23:15:00,
2013-01-21 18:31:00,52.3,29.9,29.64,SSW,202,1.1,-999.0,42,-99.99,,,0.00,Acu-Link.com,2013-01-21 23:31:00,
2013-01-21 18:46:00,52.2,29.8,29.65,SSE,157,2.2,-999.0,42,-99.99,,,0.00,Acu-Link.com,2013-01-21 23:46:00,
2013-01-21 19:01:00,51.3,30.7,29.64,South,180,1.1,-999.0,45,-99.99,,,0.00,Acu-Link.com,2013-01-22 00:01:00,
2013-01-21 19:16:00,50.0,30.6,29.64,NNE,22,0.0,-999.0,47,-99.99,,,0.00,Acu-Link.com,2013-01-22 00:16:00,
2013-01-21 19:31:00,48.9,31.1,29.64,NW,315,0.0,-999.0,50,-99.99,,,0.00,Acu-Link.com,2013-01-22 00:31:00,
2013-01-21 20:04:00,46.4,32.0,29.65,NW,315,0.0,-999.0,57,-99.99,,,0.00,Acu-Link.com,2013-01-22 01:04:00,
2013-01-21 20:20:00,47.5,31.2,29.67,WSW,247,0.0,-999.0,53,-99.99,,,0.00,Acu-Link.com,2013-01-22 01:20:00,
2013-01-21 20:35:00,47.8,31.1,29.67,NW,315,0.0,-999.0,52,-99.99,,,0.00,Acu-Link.com,2013-01-22 01:35:00,
2013-01-21 20:50:00,48.2,29.9,29.68,WNW,292,1.6,-999.0,49,-99.99,,,0.00,Acu-Link.com,2013-01-22 01:50:00,
2013-01-21 21:05:00,48.7,25.5,29.69,North,0,3.8,-999.0,40,-99.99,,,0.00,Acu-Link.com,2013-01-22 02:05:00,
2013-01-21 21:28:00,48.0,23.6,29.70,North,0,0.0,-999.0,38,-99.99,,,0.00,Acu-Link.com,2013-01-22 02:28:00,
2013-01-21 21:43:00,46.9,23.3,29.70,SSW,202,0.0,-999.0,39,-99.99,,,0.00,Acu-Link.com,2013-01-22 02:43:00,
2013-01-21 21:59:00,47.1,20.2,29.70,SW,225,2.7,-999.0,34,-99.99,,,0.00,Acu-Link.com,2013-01-22 02:59:00,
2013-01-21 22:14:00,46.8,19.9,29.71,SSW,202,1.6,-999.0,34,-99.99,,,0.00,Acu-Link.com,2013-01-22 03:14:00,
2013-01-21 22:29:00,46.2,18.7,29.71,WSW,247,0.0,-999.0,33,-99.99,,,0.00,Acu-Link.com,2013-01-22 03:29:00,
2013-01-21 22:44:00,45.3,19.3,29.72,WNW,292,0.0,-999.0,35,-99.99,,,0.00,Acu-Link.com,2013-01-22 03:44:00,
2013-01-21 22:59:00,44.4,19.8,29.72,NW,315,0.0,-999.0,37,-99.99,,,0.00,Acu-Link.com,2013-01-22 03:59:00,
2013-01-21 23:14:00,43.3,18.8,29.72,NW,315,2.2,-999.0,37,-99.99,,,0.00,Acu-Link.com,2013-01-22 04:14:00,
2013-01-21 23:30:00,43.5,18.4,29.72,NNW,337,0.0,-999.0,36,-99.99,,,0.00,Acu-Link.com,2013-01-22 04:30:00,
2013-01-21 23:45:00,42.8,17.7,29.71,NW,315,0.0,-999.0,36,-99.99,,,0.00,Acu-Link.com,2013-01-22 04:45:00,